Time;durP1;ratioP1;P1;durP2;ratioP2;P2;SDS_P1;SDS_P2;PMS_P1;PMS_P2;Temp;Humidity;BMP_temperature;BMP_pressure;BME280_temperature;BME280_humidity;BME280_pressure;Samples;Min_cycle;Max_cycle;Signal;HPM_P1;HPM_P2
2022/01/08 00:02:06;;;;;;;29.42;19.35;;;;;;;0.65;100.00;100929.63;10460955;28;20045;-53
2022/01/08 00:07:08;;;;;;;32.67;21.38;;;;;;;0.64;100.00;100929.66;10458857;28;20417;-55
2022/01/08 00:12:13;;;;;;;37.20;22.60;;;;;;;0.72;100.00;100936.44;10458643;28;20049;-52
2022/01/08 00:17:15;;;;;;;32.97;20.40;;;;;;;0.69;100.00;100943.31;10458192;28;20045;-54
2022/01/08 00:22:18;;;;;;;30.25;20.70;;;;;;;0.72;100.00;100945.88;10458579;28;20045;-54
2022/01/08 00:27:21;;;;;;;26.92;19.05;;;;;;;0.75;100.00;100940.66;10458218;28;20053;-51
2022/01/08 00:32:25;;;;;;;31.23;18.00;;;;;;;0.74;100.00;100937.25;10458546;28;20048;-53
2022/01/08 00:37:28;;;;;;;42.00;23.35;;;;;;;0.60;100.00;100933.16;10456821;28;20118;-56
2022/01/08 00:42:30;;;;;;;32.40;19.15;;;;;;;0.77;100.00;100933.75;10458099;28;20049;-50
2022/01/08 00:47:32;;;;;;;28.65;19.30;;;;;;;0.69;100.00;100940.75;10457180;28;20064;-52
2022/01/08 00:52:35;;;;;;;31.13;17.85;;;;;;;0.63;100.00;100939.13;10457061;28;20100;-52
2022/01/08 00:57:37;;;;;;;29.30;18.08;;;;;;;0.61;100.00;100935.72;10457467;28;20056;-54
2022/01/08 01:02:40;;;;;;;34.85;20.63;;;;;;;0.54;100.00;100952.16;10456725;28;20509;-52
2022/01/08 01:07:43;;;;;;;28.05;18.38;;;;;;;0.51;100.00;100941.88;10457143;28;20055;-54
2022/01/08 01:12:45;;;;;;;23.90;16.70;;;;;;;0.58;100.00;100960.69;10455676;28;20397;-53
2022/01/08 01:17:48;;;;;;;37.80;19.55;;;;;;;0.53;100.00;100960.72;10456236;28;20405;-54
2022/01/08 01:22:57;;;;;;;30.42;17.90;;;;;;;0.55;100.00;100956.41;10456417;28;20397;-51
2022/01/08 01:48:55;;;;;;;27.88;16.83;;;;;;;0.41;100.00;100972.06;10456673;28;20144;-53
2022/01/08 01:53:58;;;;;;;26.83;15.40;;;;;;;0.43;100.00;100962.56;10456546;28;20059;-54
2022/01/08 01:59:00;;;;;;;27.75;15.07;;;;;;;0.44;100.00;100958.25;10455238;28;20045;-52
2022/01/08 02:04:03;;;;;;;20.30;15.32;;;;;;;0.41;100.00;100966.06;10455096;28;20064;-52
2022/01/08 02:09:05;;;;;;;23.20;15.63;;;;;;;0.46;100.00;100959.13;10455689;28;20045;-50
2022/01/08 02:14:07;;;;;;;28.08;15.05;;;;;;;0.41;100.00;100948.03;10455938;28;20048;-53
2022/01/08 02:19:10;;;;;;;20.13;13.10;;;;;;;0.47;100.00;100951.38;10454208;28;20045;-49
2022/01/08 02:24:12;;;;;;;18.50;12.05;;;;;;;0.50;100.00;100948.72;10458202;28;20055;-49
2022/01/08 02:29:17;;;;;;;30.83;16.98;;;;;;;0.28;100.00;100935.28;10462774;28;20049;-50
2022/01/08 02:34:20;;;;;;;23.50;14.38;;;;;;;0.49;100.00;100954.78;10463013;28;20049;-50
2022/01/08 02:39:23;;;;;;;18.80;11.40;;;;;;;0.58;100.00;100947.78;10462556;28;20049;-53
2022/01/08 02:44:26;;;;;;;28.45;15.32;;;;;;;0.40;100.00;100944.56;10461496;28;20428;-53
2022/01/08 02:49:31;;;;;;;23.75;12.45;;;;;;;0.29;100.00;100957.59;10462181;28;20068;-51
2022/01/08 02:54:34;;;;;;;23.67;13.73;;;;;;;0.38;100.00;100958.34;10462195;28;20049;-52
2022/01/08 02:59:37;;;;;;;24.45;15.20;;;;;;;0.27;100.00;100953.31;10461780;28;20048;-54
2022/01/08 03:04:39;;;;;;;25.00;13.82;;;;;;;0.24;100.00;100966.25;10461865;28;20060;-52
2022/01/08 03:09:43;;;;;;;20.02;14.43;;;;;;;0.27;100.00;100974.81;10463179;28;20106;-54
2022/01/08 03:14:45;;;;;;;24.63;14.18;;;;;;;0.27;100.00;100977.38;10461160;28;20404;-51
2022/01/08 03:19:51;;;;;;;27.30;15.10;;;;;;;0.13;100.00;100971.53;10461057;28;20085;-53
2022/01/08 03:24:54;;;;;;;19.33;14.35;;;;;;;0.14;100.00;100965.50;10460641;28;20505;-55
2022/01/08 03:29:56;;;;;;;19.38;14.68;;;;;;;0.28;100.00;100968.75;10459331;28;20049;-52
2022/01/08 03:34:59;;;;;;;20.08;12.93;;;;;;;0.27;100.00;100976.50;10459305;28;20049;-50
2022/01/08 03:40:02;;;;;;;21.65;14.90;;;;;;;0.13;100.00;100994.69;10460236;28;20055;-50
2022/01/08 03:45:05;;;;;;;24.30;15.45;;;;;;;0.12;100.00;100973.25;10460018;28;20056;-50
2022/01/08 03:50:07;;;;;;;26.38;15.23;;;;;;;0.04;100.00;100987.94;10462215;28;20059;-52
2022/01/08 03:55:10;;;;;;;28.80;13.07;;;;;;;0.22;100.00;100986.00;10459462;28;20051;-53
2022/01/08 04:00:13;;;;;;;28.58;14.98;;;;;;;0.12;100.00;100999.00;10459367;28;20048;-53
2022/01/08 04:05:15;;;;;;;33.22;15.70;;;;;;;0.16;100.00;100999.81;10458876;28;20056;-54
2022/01/08 04:10:18;;;;;;;26.42;13.38;;;;;;;0.18;100.00;100993.78;10458928;28;20060;-53
2022/01/08 04:20:26;;;;;;;19.65;13.13;;;;;;;0.20;100.00;101006.63;10458310;28;20091;-51
2022/01/08 04:25:28;;;;;;;24.38;14.30;;;;;;;0.18;100.00;101003.22;10457905;28;20435;-51
2022/01/08 04:30:30;;;;;;;29.05;15.80;;;;;;;-0.01;100.00;101012.88;10458715;28;20060;-54
2022/01/08 04:35:33;;;;;;;25.55;13.30;;;;;;;0.18;100.00;101005.78;10457475;28;20052;-52
2022/01/08 04:40:35;;;;;;;21.63;15.07;;;;;;;0.13;100.00;101003.25;10456567;28;20067;-55
2022/01/08 04:45:38;;;;;;;34.72;16.58;;;;;;;-0.10;100.00;101012.94;10457304;28;20061;-52
2022/01/08 04:50:40;;;;;;;29.05;15.27;;;;;;;0.13;100.00;101021.28;10457064;28;20061;-52
2022/01/08 04:55:42;;;;;;;26.00;15.90;;;;;;;-0.01;100.00;101030.88;10456707;28;20045;-50
2022/01/08 05:00:45;;;;;;;29.92;17.92;;;;;;;-0.02;100.00;101029.19;10456908;28;20441;-53
2022/01/08 05:05:47;;;;;;;25.65;15.90;;;;;;;0.14;100.00;101024.72;10456931;28;20049;-50
2022/01/08 05:10:49;;;;;;;38.08;18.73;;;;;;;0.04;100.00;101031.69;10455212;28;20048;-53
2022/01/08 05:15:51;;;;;;;33.05;18.73;;;;;;;0.03;100.00;101034.28;10456518;28;20158;-53
2022/01/08 05:21:09;;;;;;;44.42;21.70;;;;;;;-0.15;100.00;101033.59;10456482;28;20053;-52
2022/01/08 05:26:11;;;;;;;27.80;18.23;;;;;;;-0.02;100.00;101032.63;10456806;28;20049;-52
2022/01/08 05:31:15;;;;;;;34.15;21.40;;;;;;;-0.12;100.00;101027.56;10455178;28;20497;-49
2022/01/08 05:36:21;;;;;;;42.83;21.73;;;;;;;-0.05;100.00;101035.22;10456027;28;20120;-52
2022/01/08 05:41:24;;;;;;;40.42;21.60;;;;;;;-0.08;100.00;101031.81;10456238;28;20049;-56
2022/01/08 05:46:26;;;;;;;36.10;22.30;;;;;;;-0.20;100.00;101031.06;10456272;28;20061;-53
2022/01/08 05:51:29;;;;;;;43.33;21.02;;;;;;;-0.17;100.00;101037.88;10456708;28;20052;-54
2022/01/08 05:56:31;;;;;;;36.30;21.02;;;;;;;-0.17;100.00;101029.31;10456612;28;20049;-52
2022/01/08 06:01:34;;;;;;;35.63;22.00;;;;;;;-0.21;100.00;101047.38;10462834;28;20049;-50
2022/01/08 06:06:39;;;;;;;46.58;22.65;;;;;;;-0.24;100.00;101055.09;10463861;28;20053;-51
2022/01/08 06:11:42;;;;;;;34.00;22.10;;;;;;;-0.16;100.00;101060.19;10464196;28;20075;-52
2022/01/08 06:16:44;;;;;;;35.40;22.00;;;;;;;-0.17;100.00;101068.78;10462099;28;20382;-52
2022/01/08 06:21:47;;;;;;;34.78;20.15;;;;;;;-0.19;100.00;101073.94;10463019;28;20397;-54
2022/01/08 06:26:49;;;;;;;38.90;24.52;;;;;;;-0.21;100.00;101067.09;10463095;28;20059;-51
2022/01/08 06:31:52;;;;;;;36.90;20.90;;;;;;;-0.23;100.00;101069.69;10461436;28;20049;-55
2022/01/08 06:36:54;;;;;;;43.45;22.38;;;;;;;-0.24;100.00;101077.41;10462599;28;20041;-50
2022/01/08 06:41:56;;;;;;;36.08;21.52;;;;;;;-0.15;100.00;101081.63;10462361;28;20048;-53
2022/01/08 06:46:58;;;;;;;41.25;21.25;;;;;;;-0.21;100.00;101082.53;10462796;28;20057;-53
2022/01/08 06:52:01;;;;;;;37.45;24.25;;;;;;;-0.24;100.00;101077.41;10460761;28;20053;-52
2022/01/08 06:57:04;;;;;;;41.70;25.08;;;;;;;-0.19;100.00;101079.06;10461828;28;20060;-53
2022/01/08 07:02:07;;;;;;;34.67;24.27;;;;;;;-0.05;100.00;101076.41;10461499;28;20378;-53
2022/01/08 07:07:09;;;;;;;42.53;26.33;;;;;;;-0.15;100.00;101074.78;10461410;28;20077;-54
2022/01/08 07:12:11;;;;;;;47.25;26.00;;;;;;;-0.08;100.00;101066.13;10461043;28;20417;-52
2022/01/08 07:17:14;;;;;;;42.95;23.58;;;;;;;-0.14;100.00;101073.06;10460600;28;20412;-51
2022/01/08 07:22:16;;;;;;;43.13;25.08;;;;;;;-0.12;100.00;101073.88;10460998;28;20045;-53
2022/01/08 07:27:18;;;;;;;44.17;25.42;;;;;;;-0.10;100.00;101074.72;10460920;28;20060;-51
2022/01/08 07:32:21;;;;;;;44.47;25.33;;;;;;;0.15;100.00;101070.19;10460581;28;20068;-52
2022/01/08 07:37:23;;;;;;;43.70;25.00;;;;;;;0.13;100.00;101064.22;10460638;28;20059;-50
2022/01/08 07:42:25;;;;;;;44.28;26.00;;;;;;;0.01;100.00;101069.50;10458908;28;20130;-53
2022/01/08 07:47:28;;;;;;;43.92;24.90;;;;;;;0.05;100.00;101061.75;10461560;28;20408;-55
2022/01/08 07:52:30;;;;;;;34.88;21.70;;;;;;;0.18;100.00;101057.28;10461099;28;20052;-49
2022/01/08 07:57:32;;;;;;;43.83;27.65;;;;;;;0.29;100.00;101067.50;10459682;28;20045;-49
2022/01/08 08:02:35;;;;;;;36.20;24.00;;;;;;;0.44;100.00;101063.88;10459382;28;20060;-52
2022/01/08 08:07:38;;;;;;;48.95;27.80;;;;;;;0.24;100.00;101061.56;10457987;28;20057;-51
2022/01/08 08:12:42;;;;;;;54.30;27.75;;;;;;;0.34;100.00;101061.41;10458957;28;20073;-50
2022/01/08 08:17:44;;;;;;;55.85;32.28;;;;;;;0.30;100.00;101064.03;10458336;28;20049;-55
2022/01/08 08:22:46;;;;;;;48.95;28.50;;;;;;;0.48;100.00;101053.53;10456994;28;20072;-51
2022/01/08 08:27:50;;;;;;;35.47;21.48;;;;;;;0.67;100.00;101032.69;10459830;28;20052;-52
2022/01/08 08:32:52;;;;;;;39.90;23.75;;;;;;;0.46;100.00;101034.66;10458061;28;20547;-53
2022/01/08 08:37:54;;;;;;;48.88;27.55;;;;;;;0.68;100.00;101030.09;10457959;28;20577;-53
2022/01/08 08:42:57;;;;;;;38.88;25.17;;;;;;;0.70;100.00;101023.19;10457650;28;20049;-55
2022/01/08 08:48:00;;;;;;;43.05;25.65;;;;;;;0.66;100.00;101010.41;10457307;28;20049;-50
2022/01/08 08:53:02;;;;;;;38.05;25.85;;;;;;;0.76;100.00;101011.09;10457443;28;20057;-51
2022/01/08 08:58:05;;;;;;;40.63;26.50;;;;;;;0.61;100.00;101001.88;10456037;28;20068;-55
2022/01/08 09:03:08;;;;;;;39.90;27.15;;;;;;;0.73;100.00;101005.13;10457408;28;20045;-52
2022/01/08 09:08:10;;;;;;;35.63;24.38;;;;;;;0.82;100.00;101009.28;10457069;28;20130;-51
2022/01/08 09:13:12;;;;;;;39.60;23.15;;;;;;;0.74;100.00;101001.69;10456740;28;20444;-52
2022/01/08 09:18:16;;;;;;;35.55;22.67;;;;;;;0.63;100.00;100998.38;10456567;28;20048;-52
2022/01/08 09:23:23;;;;;;;35.88;18.58;;;;;;;0.81;100.00;100999.88;10457286;28;20125;-51
2022/01/08 09:28:26;;;;;;;30.83;20.67;;;;;;;0.87;100.00;100998.94;10456548;28;20053;-54
2022/01/08 09:33:29;;;;;;;32.17;20.08;;;;;;;0.95;100.00;100999.69;10458189;28;20451;-54
2022/01/08 09:38:31;;;;;;;38.88;21.27;;;;;;;0.99;100.00;100998.75;10464801;28;20137;-55
2022/01/08 09:43:35;;;;;;;23.27;17.63;;;;;;;1.13;100.00;100997.69;10464724;28;20131;-56
2022/01/08 09:48:38;;;;;;;44.10;23.05;;;;;;;1.00;100.00;100992.72;10464629;28;20114;-54
2022/01/08 09:53:40;;;;;;;42.08;25.58;;;;;;;0.94;100.00;100982.50;10464438;28;20080;-56
2022/01/08 09:58:43;;;;;;;44.55;25.58;;;;;;;1.03;100.00;100971.22;10464236;28;20045;-54
2022/01/08 10:03:46;;;;;;;52.47;33.00;;;;;;;0.98;100.00;100955.81;10464115;28;20124;-53
2022/01/08 10:08:50;;;;;;;55.15;32.63;;;;;;;1.11;100.00;100930.69;10463263;28;20052;-54
2022/01/08 10:14:02;;;;;;;44.97;27.67;;;;;;;1.20;100.00;100912.47;10463722;28;20056;-51
2022/01/08 10:19:20;;;;;;;48.45;29.05;;;;;;;1.36;100.00;100895.00;10464122;28;20520;-54
2022/01/08 10:24:27;;;;;;;42.58;27.95;;;;;;;1.48;100.00;100899.09;10463781;28;20072;-52
2022/01/08 10:29:29;;;;;;;52.47;31.55;;;;;;;1.32;100.00;100877.88;10463083;28;20049;-56
2022/01/08 10:34:32;;;;;;;52.22;30.33;;;;;;;1.54;100.00;100868.00;10462947;28;20041;-52
2022/01/08 10:39:38;;;;;;;41.63;23.05;;;;;;;1.72;100.00;100851.31;10462512;28;20051;-52
2022/01/08 10:44:42;;;;;;;42.50;23.33;;;;;;;1.73;100.00;100828.94;10461324;28;20540;-55
2022/01/08 10:49:46;;;;;;;40.67;24.40;;;;;;;1.72;100.00;100814.34;10462337;28;20040;-54
2022/01/08 10:54:57;;;;;;;40.90;22.75;;;;;;;1.76;100.00;100813.38;10461857;28;20049;-55
2022/01/08 11:00:00;;;;;;;41.83;26.77;;;;;;;1.93;100.00;100800.97;10462756;28;20045;-53
2022/01/08 11:05:07;;;;;;;43.03;23.77;;;;;;;1.90;100.00;100795.00;10461462;28;20056;-53
2022/01/08 11:10:16;;;;;;;37.42;22.25;;;;;;;1.99;100.00;100775.00;10461775;28;20483;-52
2022/01/08 11:20:31;;;;;;;48.50;24.58;;;;;;;2.22;100.00;100771.06;10461412;28;20048;-52
2022/01/08 11:25:35;;;;;;;41.20;23.13;;;;;;;2.33;100.00;100769.06;10460908;28;20481;-53
2022/01/08 11:30:42;;;;;;;36.17;22.38;;;;;;;2.55;100.00;100743.53;10461227;28;20064;-51
2022/01/08 11:35:46;;;;;;;35.17;19.45;;;;;;;2.75;100.00;100737.88;10461064;28;20501;-54
2022/01/08 11:40:51;;;;;;;36.63;20.40;;;;;;;2.92;100.00;100716.75;10461051;28;20132;-52
2022/01/08 11:46:02;;;;;;;36.72;18.80;;;;;;;2.75;100.00;100706.84;10460539;28;20053;-52
2022/01/08 11:51:07;;;;;;;39.20;18.58;;;;;;;3.01;100.00;100696.69;10459230;28;20041;-50
2022/01/08 11:56:29;;;;;;;31.85;19.50;;;;;;;2.84;100.00;100676.47;10458613;28;20507;-51
2022/01/08 12:01:31;;;;;;;30.20;16.60;;;;;;;2.92;100.00;100667.59;10460602;28;20047;-51
2022/01/08 12:06:39;;;;;;;33.13;17.40;;;;;;;3.00;100.00;100648.47;10458940;28;20485;-52
2022/01/08 12:11:47;;;;;;;28.65;16.25;;;;;;;3.11;100.00;100644.66;10459594;28;20124;-55
2022/01/08 12:16:54;;;;;;;31.67;17.33;;;;;;;3.00;100.00;100626.00;10458664;28;20048;-53
2022/01/08 12:21:57;;;;;;;25.67;14.50;;;;;;;3.12;100.00;100598.94;10458706;28;20041;-53
2022/01/08 12:27:02;;;;;;;24.48;14.02;;;;;;;3.05;100.00;100575.00;10458303;28;20501;-50
2022/01/08 12:32:30;;;;;;;25.55;13.63;;;;;;;2.90;100.00;100554.75;10458276;28;20059;-50
2022/01/08 12:37:40;;;;;;;21.38;12.20;;;;;;;2.85;100.00;100539.38;10458223;28;20045;-63
2022/01/08 12:42:44;;;;;;;19.67;12.00;;;;;;;2.72;100.00;100523.41;10456716;28;20071;-62
2022/01/08 12:48:00;;;;;;;22.45;12.18;;;;;;;2.68;100.00;100495.94;10457786;28;20524;-53
2022/01/08 12:53:06;;;;;;;22.60;12.13;;;;;;;2.79;100.00;100487.84;10457739;28;20045;-58
2022/01/08 12:58:19;;;;;;;17.20;11.27;;;;;;;2.71;100.00;100464.81;10456163;28;20045;-58
2022/01/08 13:03:25;;;;;;;19.88;11.05;;;;;;;2.82;100.00;100448.13;10457714;28;20053;-59
2022/01/08 13:08:31;;;;;;;21.33;10.02;;;;;;;2.76;100.00;100436.25;10455873;28;20079;-55
2022/01/08 13:13:56;;;;;;;23.98;11.18;;;;;;;2.71;100.00;100420.88;10457121;28;20049;-60
2022/01/08 13:19:03;;;;;;;20.80;9.70;;;;;;;2.76;100.00;100394.88;10456660;28;20072;-55
2022/01/08 13:24:14;;;;;;;14.68;8.25;;;;;;;2.68;100.00;100369.25;10456568;28;20052;-52
2022/01/08 13:29:24;;;;;;;14.15;9.02;;;;;;;2.73;100.00;100346.69;10455155;28;20049;-57
2022/01/08 13:34:53;;;;;;;13.50;8.05;;;;;;;2.81;100.00;100330.94;10456427;28;20041;-53
2022/01/08 13:40:01;;;;;;;12.73;7.55;;;;;;;2.81;100.00;100322.31;10453333;28;20053;-57
2022/01/08 13:45:07;;;;;;;14.80;6.85;;;;;;;2.85;100.00;100298.91;10456123;28;20049;-57
2022/01/08 13:50:22;;;;;;;12.50;6.85;;;;;;;2.88;100.00;100292.78;10456610;28;20048;-53
2022/01/08 13:55:27;;;;;;;12.82;6.63;;;;;;;2.88;100.00;100285.03;10455984;28;20478;-52
2022/01/08 14:00:32;;;;;;;8.60;5.30;;;;;;;2.79;100.00;100265.47;10455643;28;20076;-56
2022/01/08 14:05:35;;;;;;;8.40;5.28;;;;;;;2.82;100.00;100251.63;10455806;28;20057;-56
2022/01/08 14:10:42;;;;;;;7.78;5.22;;;;;;;2.75;100.00;100238.06;10455758;28;20371;-53
2022/01/08 14:15:47;;;;;;;6.90;4.60;;;;;;;2.72;100.00;100225.22;10455596;28;20052;-51
2022/01/08 14:20:55;;;;;;;8.90;4.60;;;;;;;2.70;100.00;100220.13;10459432;28;20060;-56
2022/01/08 14:25:57;;;;;;;4.18;3.80;;;;;;;2.63;100.00;100200.56;10461791;28;20501;-52
2022/01/08 14:31:30;;;;;;;11.80;3.40;;;;;;;2.47;100.00;100182.16;10461757;28;20053;-55
2022/01/08 14:36:45;;;;;;;7.68;3.67;;;;;;;2.43;100.00;100177.97;10458534;28;20041;-57
2022/01/08 14:41:55;;;;;;;7.90;4.13;;;;;;;2.33;100.00;100141.25;10463034;28;20055;-56
2022/01/08 14:46:57;;;;;;;8.50;3.85;;;;;;;2.32;100.00;100137.00;10462474;28;20056;-56
2022/01/08 14:52:00;;;;;;;9.32;3.97;;;;;;;2.33;100.00;100130.91;10462333;28;20049;-56
2022/01/08 14:57:03;;;;;;;8.52;3.97;;;;;;;2.22;100.00;100102.88;10462027;28;20045;-54
2022/01/08 15:02:05;;;;;;;8.43;4.20;;;;;;;2.25;100.00;100086.41;10461719;28;20417;-58
2022/01/08 15:07:08;;;;;;;7.43;4.15;;;;;;;2.21;100.00;100065.03;10461507;28;20053;-53
2022/01/08 15:12:11;;;;;;;8.75;4.10;;;;;;;2.21;100.00;100044.34;10460196;28;20064;-53
2022/01/08 15:17:14;;;;;;;6.85;3.67;;;;;;;2.33;100.00;100017.25;10461284;28;20052;-57
2022/01/08 15:22:16;;;;;;;6.97;3.70;;;;;;;2.31;100.00;99994.97;10461203;28;20049;-56
2022/01/08 15:27:19;;;;;;;6.47;3.65;;;;;;;2.30;100.00;99973.44;10460897;28;20056;-54
2022/01/08 15:32:22;;;;;;;8.07;4.50;;;;;;;2.33;100.00;99952.66;10459984;28;20049;-56
2022/01/08 15:37:24;;;;;;;7.60;3.30;;;;;;;2.36;100.00;99949.97;10460405;28;20052;-52
2022/01/08 15:42:27;;;;;;;6.53;3.17;;;;;;;2.55;100.00;99931.19;10460814;28;20055;-58
2022/01/08 15:47:29;;;;;;;4.20;3.40;;;;;;;2.49;100.00;99909.03;10459689;28;20064;-57
2022/01/08 15:52:31;;;;;;;3.25;2.92;;;;;;;2.45;100.00;99888.53;10459513;28;20052;-55
2022/01/08 15:57:34;;;;;;;9.23;3.78;;;;;;;2.36;100.00;99862.13;10459646;28;20049;-56
2022/01/08 16:02:36;;;;;;;7.15;3.88;;;;;;;2.33;100.00;99851.09;10460047;28;20055;-53
2022/01/08 16:07:39;;;;;;;6.00;4.63;;;;;;;2.49;100.00;99844.44;10459312;28;20131;-55
2022/01/08 16:12:41;;;;;;;7.60;5.03;;;;;;;2.32;100.00;99813.22;10459013;28;20053;-53
2022/01/08 16:17:44;;;;;;;7.10;5.15;;;;;;;2.44;100.00;99798.97;10458840;28;20060;-58
2022/01/08 16:22:46;;;;;;;8.15;5.07;;;;;;;2.50;100.00;99785.84;10458616;28;20531;-55
2022/01/08 16:27:49;;;;;;;7.75;5.38;;;;;;;2.54;100.00;99766.72;10458452;28;20540;-55
2022/01/08 16:32:51;;;;;;;6.45;4.97;;;;;;;2.56;100.00;99754.59;10458655;28;20049;-55
2022/01/08 16:37:53;;;;;;;11.43;6.03;;;;;;;2.58;100.00;99737.28;10458145;28;20056;-54
2022/01/08 16:42:56;;;;;;;6.07;4.80;;;;;;;2.60;100.00;99728.53;10458770;28;20049;-52
2022/01/08 16:47:58;;;;;;;5.30;4.80;;;;;;;2.65;100.00;99699.09;10457824;28;20064;-53
2022/01/08 16:53:01;;;;;;;9.07;5.70;;;;;;;2.67;100.00;99686.94;10457669;28;20048;-53
2022/01/08 16:58:03;;;;;;;9.30;5.32;;;;;;;2.68;100.00;99675.69;10457529;28;20041;-56
2022/01/08 17:03:06;;;;;;;5.32;4.75;;;;;;;2.79;100.00;99650.22;10457272;28;20045;-55
2022/01/08 17:08:11;;;;;;;6.25;5.65;;;;;;;2.88;100.00;99628.31;10455823;28;20398;-52
2022/01/08 17:13:13;;;;;;;6.97;6.00;;;;;;;2.84;100.00;99619.84;10456975;28;20048;-54
2022/01/08 17:18:15;;;;;;;6.35;5.60;;;;;;;2.93;100.00;99605.69;10456975;28;20053;-54
2022/01/08 17:23:18;;;;;;;5.63;4.90;;;;;;;3.01;100.00;99598.41;10456793;28;20079;-56
2022/01/08 17:28:20;;;;;;;6.72;5.00;;;;;;;3.01;100.00;99569.09;10456507;28;20064;-54
2022/01/08 17:33:23;;;;;;;5.90;5.28;;;;;;;2.97;100.00;99555.50;10456542;28;20044;-56
2022/01/08 17:38:25;;;;;;;8.90;5.28;;;;;;;3.04;100.00;99543.94;10456244;28;20045;-56
2022/01/08 17:43:28;;;;;;;6.50;5.88;;;;;;;3.03;100.00;99531.94;10456635;28;20056;-51
2022/01/08 17:48:30;;;;;;;5.75;5.07;;;;;;;3.12;100.00;99509.97;10456139;28;20071;-57
2022/01/08 17:53:33;;;;;;;6.05;4.68;;;;;;;3.17;100.00;99495.91;10456970;28;20071;-54
2022/01/08 17:58:35;;;;;;;5.18;4.78;;;;;;;3.29;100.00;99483.31;10464538;28;20056;-56
2022/01/08 18:03:38;;;;;;;4.47;4.05;;;;;;;3.34;100.00;99455.47;10463469;28;20059;-58
2022/01/08 18:08:41;;;;;;;4.03;3.63;;;;;;;3.41;100.00;99443.06;10463977;28;20489;-51
2022/01/08 18:13:44;;;;;;;9.00;4.47;;;;;;;3.39;100.00;99416.44;10463796;28;20052;-55
2022/01/08 18:18:46;;;;;;;5.25;4.00;;;;;;;3.51;100.00;99427.03;10463597;28;20051;-55
2022/01/08 18:23:49;;;;;;;3.33;3.00;;;;;;;3.61;100.00;99393.72;10463555;28;20049;-55
2022/01/08 18:28:51;;;;;;;3.75;3.45;;;;;;;3.66;100.00;99378.78;10463056;28;20056;-51
2022/01/08 18:33:53;;;;;;;10.00;4.03;;;;;;;3.66;100.00;99367.63;10463157;28;20052;-55
2022/01/08 18:38:56;;;;;;;2.33;2.22;;;;;;;3.76;100.00;99347.28;10462708;28;20440;-56
2022/01/08 18:43:58;;;;;;;3.35;3.05;;;;;;;3.76;100.00;99339.50;10462725;28;20049;-55
2022/01/08 18:49:01;;;;;;;4.35;3.30;;;;;;;3.77;100.00;99330.84;10462176;28;20053;-54
2022/01/08 18:54:04;;;;;;;3.55;2.72;;;;;;;3.90;100.00;99311.09;10462046;28;20382;-56
2022/01/08 18:59:06;;;;;;;3.10;2.58;;;;;;;3.94;100.00;99294.50;10462043;28;20405;-53
2022/01/08 19:04:08;;;;;;;2.95;2.67;;;;;;;3.95;100.00;99280.66;10461751;28;20044;-52
2022/01/08 19:09:11;;;;;;;3.00;2.28;;;;;;;3.84;100.00;99259.69;10461388;28;20059;-53
2022/01/08 19:14:14;;;;;;;2.20;2.10;;;;;;;3.96;100.00;99259.00;10461287;28;20052;-55
2022/01/08 19:19:16;;;;;;;2.45;2.00;;;;;;;3.89;100.00;99237.78;10460799;28;20045;-58
2022/01/08 19:24:18;;;;;;;1.60;1.50;;;;;;;3.94;100.00;99222.00;10460960;28;20228;-56
2022/01/08 19:29:21;;;;;;;2.20;2.00;;;;;;;4.01;100.00;99206.97;10460236;28;20052;-55
2022/01/08 19:34:23;;;;;;;4.32;2.13;;;;;;;4.04;100.00;99199.84;10460594;28;20052;-57
2022/01/08 19:39:25;;;;;;;2.05;1.48;;;;;;;4.13;100.00;99177.78;10460521;28;20045;-57
2022/01/08 19:44:37;;;;;;;1.45;1.35;;;;;;;4.10;100.00;99165.00;10460501;28;20048;-56
2022/01/08 19:49:41;;;;;;;2.47;2.28;;;;;;;4.05;100.00;99143.69;10460145;28;20081;-57
2022/01/08 19:54:43;;;;;;;2.17;2.08;;;;;;;4.03;100.00;99137.78;10460497;28;20049;-57
2022/01/08 19:59:47;;;;;;;1.80;1.70;;;;;;;4.05;100.00;99123.84;10459700;28;20132;-54
2022/01/08 20:04:49;;;;;;;2.67;2.38;;;;;;;3.91;100.00;99100.47;10459572;28;20049;-55
2022/01/08 20:09:55;;;;;;;5.63;1.95;;;;;;;3.98;100.00;99100.94;10459554;28;20053;-55
2022/01/08 20:14:57;;;;;;;2.67;1.60;;;;;;;3.95;100.00;99095.94;10459057;28;20045;-55
2022/01/08 20:20:01;;;;;;;2.70;2.15;;;;;;;3.90;100.00;99072.91;10457178;28;20060;-57
2022/01/08 20:25:04;;;;;;;1.73;1.60;;;;;;;4.03;100.00;99066.09;10458815;28;20053;-54
2022/01/08 20:30:07;;;;;;;3.88;2.25;;;;;;;3.91;100.00;99052.09;10458625;28;20053;-55
2022/01/08 20:35:10;;;;;;;2.60;2.40;;;;;;;3.87;100.00;99029.91;10458668;28;20052;-55
2022/01/08 20:40:13;;;;;;;2.20;2.08;;;;;;;3.83;100.00;99028.44;10458103;28;20074;-53
2022/01/08 20:45:16;;;;;;;2.03;1.92;;;;;;;3.90;100.00;99010.75;10458086;28;20154;-54
2022/01/08 20:50:18;;;;;;;1.85;1.70;;;;;;;3.90;100.00;99003.84;10416499;28;20060;-56
2022/01/08 20:55:21;;;;;;;2.03;1.92;;;;;;;3.94;100.00;98982.94;10416298;28;20061;-55
2022/01/08 21:00:25;;;;;;;4.00;2.70;;;;;;;3.97;100.00;98981.00;10416184;28;20052;-57
2022/01/08 21:05:27;;;;;;;2.50;2.10;;;;;;;3.83;100.00;98955.94;10416128;28;20056;-54
2022/01/08 21:10:30;;;;;;;2.60;2.40;;;;;;;3.94;100.00;98938.94;10414944;28;20060;-59
2022/01/08 21:15:32;;;;;;;1.63;1.52;;;;;;;3.92;100.00;98928.66;10415814;28;20045;-56
2022/01/08 21:20:35;;;;;;;2.38;1.90;;;;;;;3.89;100.00;98915.91;10415837;28;20049;-58
2022/01/08 21:25:37;;;;;;;2.33;2.13;;;;;;;3.94;100.00;98906.09;10415501;28;20481;-54
2022/01/08 21:30:40;;;;;;;4.85;2.58;;;;;;;3.93;100.00;98901.00;10415202;28;20413;-57
2022/01/08 21:35:45;;;;;;;2.63;2.00;;;;;;;3.96;100.00;98882.69;10415717;28;20049;-55
2022/01/08 21:40:48;;;;;;;2.70;2.50;;;;;;;3.90;100.00;98876.97;10415074;28;20053;-54
2022/01/08 21:45:50;;;;;;;2.17;2.05;;;;;;;4.03;100.00;98868.44;10419338;28;20064;-54
2022/01/08 21:50:53;;;;;;;1.40;1.30;;;;;;;4.08;100.00;98869.84;10455111;28;20045;-56
2022/01/08 21:55:55;;;;;;;1.67;1.50;;;;;;;4.07;100.00;98849.22;10455928;28;20516;-58
2022/01/08 22:00:57;;;;;;;3.53;1.48;;;;;;;4.11;100.00;98842.09;10455971;28;20489;-55
2022/01/08 22:06:00;;;;;;;1.45;1.40;;;;;;;4.15;100.00;98839.19;10456027;28;20053;-54
2022/01/08 22:11:02;;;;;;;4.57;1.73;;;;;;;4.09;100.00;98818.88;10455898;28;20045;-56
2022/01/08 22:16:06;;;;;;;1.48;1.38;;;;;;;4.09;100.00;98803.34;10455498;28;20413;-55
2022/01/08 22:21:08;;;;;;;2.80;1.50;;;;;;;4.11;100.00;98801.47;10455452;28;20490;-54
2022/01/08 22:26:10;;;;;;;1.52;1.42;;;;;;;4.19;100.00;98794.06;10455501;28;20497;-58
2022/01/08 22:31:13;;;;;;;2.13;1.92;;;;;;;4.17;100.00;98788.16;10455309;28;20516;-55
2022/01/08 22:36:15;;;;;;;2.13;2.00;;;;;;;4.06;100.00;98780.22;10455157;28;20397;-56
2022/01/08 22:41:18;;;;;;;2.63;2.42;;;;;;;3.95;100.00;98767.09;10458105;28;20175;-54
2022/01/08 22:46:20;;;;;;;2.97;2.78;;;;;;;3.84;100.00;98758.25;10462620;28;20057;-53
2022/01/08 22:51:23;;;;;;;3.60;3.30;;;;;;;3.74;100.00;98759.75;10462202;28;20068;-55
2022/01/08 22:56:25;;;;;;;4.65;4.25;;;;;;;3.71;100.00;98752.16;10462461;28;20053;-57
2022/01/08 23:01:28;;;;;;;3.15;2.95;;;;;;;3.69;100.00;98754.03;10460807;28;20077;-56
2022/01/08 23:06:38;;;;;;;4.32;3.97;;;;;;;3.63;100.00;98741.44;10461581;28;20075;-54
2022/01/08 23:11:40;;;;;;;4.72;4.32;;;;;;;3.54;100.00;98746.25;10461453;28;20489;-53
2022/01/08 23:16:43;;;;;;;3.70;3.40;;;;;;;3.64;100.00;98750.88;10461194;28;20071;-57
2022/01/08 23:21:45;;;;;;;7.38;5.68;;;;;;;3.57;100.00;98734.09;10461043;28;20055;-58
2022/01/08 23:26:47;;;;;;;5.30;4.80;;;;;;;3.58;100.00;98730.56;10460757;28;20493;-55
2022/01/08 23:31:50;;;;;;;6.03;4.90;;;;;;;3.67;100.00;98730.81;10459812;28;20045;-57